< < Back
Terminal Aerodrome Forecast


Current Version              Previous Versions:   1  2  3  4  5  6  7  8  9  

Terminal Aerodrome Forecast

855
FTUS42 KMLB 052341
TAFMCO
TAF
KMCO 052341Z 0600/0624 01013KT P6SM FEW035
     FM060600 36009KT P6SM BKN045
     FM061600 03007KT P6SM VCSH BKN040=



Latest METAR

722
SAUS70 KWBC 061300 RRE
MTRMCO
METAR KMCO 061253Z 35007KT 10SM SCT060 11/08 A3019 RMK AO2 SLP222
T01060083


USA.gov is the U.S. government's official web portal to all federal, state and local government web resources and services.